Terminal Aerodrome Forecast
Issued by NWS

Home | Current Version | Previous Version | Text Only | Print | Product List | Glossary On
Versions: 1 2 3 4 5 6 7 8 9 10 11 12 13 14 15 16
000
FTUS43 KGRB 311100
TAFAUW
TAF
KAUW 311120Z 3112/0112 VRB03KT 4SM BR SCT100
      TEMPO 3112/3113 1 1/2SM BR SCT002
     FM311300 28005KT P6SM SCT015
     FM311600 29008KT P6SM SCT050 SCT080 PROB30 3122/0102 -SHRA
      BKN050
     FM010200 VRB03KT P6SM SCT080=

USA.gov is the U.S. government's official web portal to all federal, state and local government web resources and services.